Mudgee, Australia
Current Conditions -  °F | °C
As of 4:00 AM on Monday 24 Nov 2014 (Local Time) from YMDG Reporting Station
Clear Clear  
Wind Chill: 73°   Ceiling: Unl
Heat Index: 73°   Visibility: NA
Dew Point: 61°   Wind: 5mph
Humidity: 65%   Direction: 80°E
Pressure: 29.94"   Gusts: NA
Location:  32.59°S, 149.59°E
Report Text: YMDG 231700Z AUTO 08004KT //// // NCD 23/16 Q1014
Loading
Personal Weather Stations






























Interactive Weather Map New forecast layout! Learn more

10-Day Weather Forecast

Advertisements
Track Severe Weather on mobile